Time;durP1;ratioP1;P1;durP2;ratioP2;P2;SDS_P1;SDS_P2;PMS_P1;PMS_P2;Temp;Humidity;BMP_temperature;BMP_pressure;BME280_temperature;BME280_humidity;BME280_pressure;Samples;Min_cycle;Max_cycle;Signal;HPM_P1;HPM_P2
2023/01/16 00:00:36;;;;;;;;;;;;;;;;;;5021218;28;19925;-68
2023/01/16 00:03:02;;;;;;;;;;;;;;;;;;5031744;28;19925;-68
2023/01/16 00:05:28;;;;;;;;;;;;;;;;;;5019860;28;19925;-68
2023/01/16 00:07:54;;;;;;;;;;;;;;;;;;5014206;28;19925;-68
2023/01/16 00:10:20;;;;;;;;;;;;;;;;;;5030572;28;19921;-68
2023/01/16 00:12:46;;;;;;;;;;;;;;;;;;5030328;28;20375;-68
2023/01/16 00:15:11;;;;;;;;;;;;;;;;;;5032024;28;19971;-68
2023/01/16 00:17:37;;;;;;;;;;;;;;;;;;5023853;28;19936;-68
2023/01/16 00:20:03;;;;;;;;;;;;;;;;;;5031717;28;19924;-68
2023/01/16 00:22:29;;;;;;;;;;;;;;;;;;5029927;28;19928;-68
2023/01/16 00:24:55;;;;;;;;;;;;;;;;;;5020247;28;19930;-69
2023/01/16 00:27:21;;;;;;;;;;;;;;;;;;5024255;28;19932;-68
2023/01/16 00:29:47;;;;;;;;;;;;;;;;;;5031052;28;20383;-68
2023/01/16 00:32:15;;;;;;;;;;;;;;;;;;5025668;28;19922;-68
2023/01/16 00:34:40;;;;;;;;;;;;;;;;;;5022820;28;19921;-69
2023/01/16 00:37:06;;;;;;;;;;;;;;;;;;5047346;28;19928;-68
2023/01/16 00:39:32;;;;;;;;;;;;;;;;;;5031756;28;19929;-68
2023/01/16 00:41:58;;;;;;;;;;;;;;;;;;5019941;28;19921;-68
2023/01/16 00:44:24;;;;;;;;;;;;;;;;;;5031588;28;19921;-68
2023/01/16 00:46:50;;;;;;;;;;;;;;;;;;5029627;28;19921;-68
2023/01/16 00:49:16;;;;;;;;;;;;;;;;;;5030326;28;19929;-68
2023/01/16 00:51:42;;;;;;;;;;;;;;;;;;5031637;28;19928;-68
2023/01/16 00:54:08;;;;;;;;;;;;;;;;;;5031697;28;19949;-68
2023/01/16 00:56:33;;;;;;;;;;;;;;;;;;5031591;28;19927;-68
2023/01/16 00:58:59;;;;;;;;;;;;;;;;;;5017136;28;19930;-68
2023/01/16 01:01:25;;;;;;;;;;;;;;;;;;5025409;28;19928;-68
2023/01/16 01:03:51;;;;;;;;;;;;;;;;;;5029708;28;20040;-68
2023/01/16 01:06:17;;;;;;;;;;;;;;;;;;5030220;28;19921;-68
2023/01/16 01:08:43;;;;;;;;;;;;;;;;;;5020067;28;19936;-68
2023/01/16 01:11:09;;;;;;;;;;;;;;;;;;5011999;28;19948;-68
2023/01/16 01:13:35;;;;;;;;;;;;;;;;;;5011897;28;20363;-68
2023/01/16 01:16:01;;;;;;;;;;;;;;;;;;5021813;28;19921;-68
2023/01/16 01:18:27;;;;;;;;;;;;;;;;;;5030257;28;20274;-68
2023/01/16 01:20:53;;;;;;;;;;;;;;;;;;5031999;28;19925;-68
2023/01/16 01:23:18;;;;;;;;;;;;;;;;;;5028828;28;19921;-68
2023/01/16 01:25:44;;;;;;;;;;;;;;;;;;5026256;28;19936;-68
2023/01/16 01:28:10;;;;;;;;;;;;;;;;;;5027582;28;19926;-68
2023/01/16 01:30:36;;;;;;;;;;;;;;;;;;5015578;28;19929;-68
2023/01/16 01:33:02;;;;;;;;;;;;;;;;;;5021592;28;20363;-68
2023/01/16 01:35:28;;;;;;;;;;;;;;;;;;5015073;28;19921;-68
2023/01/16 01:37:54;;;;;;;;;;;;;;;;;;5030056;28;19925;-68
2023/01/16 01:40:20;;;;;;;;;;;;;;;;;;5021761;28;20391;-68
2023/01/16 01:42:51;;;;;;;;;;;;;;;;;;5034745;28;20063;-68
2023/01/16 01:45:17;;;;;;;;;;;;;;;;;;5032530;28;19928;-68
2023/01/16 01:47:44;;;;;;;;;;;;;;;;;;5033438;28;19925;-68
2023/01/16 01:50:09;;;;;;;;;;;;;;;;;;5034510;28;19959;-68
2023/01/16 01:52:35;;;;;;;;;;;;;;;;;;5034642;28;20363;-68
2023/01/16 01:55:01;;;;;;;;;;;;;;;;;;5032966;28;19921;-68
2023/01/16 01:57:27;;;;;;;;;;;;;;;;;;5031797;28;20319;-68
2023/01/16 01:59:53;;;;;;;;;;;;;;;;;;5033064;28;19933;-68
2023/01/16 02:02:20;;;;;;;;;;;;;;;;;;5032702;28;19932;-68
2023/01/16 02:04:46;;;;;;;;;;;;;;;;;;5033061;28;19925;-69
2023/01/16 02:07:12;;;;;;;;;;;;;;;;;;5033658;28;20539;-68
2023/01/16 02:09:38;;;;;;;;;;;;;;;;;;5029356;28;19925;-68
2023/01/16 02:12:04;;;;;;;;;;;;;;;;;;5021480;28;19925;-68
2023/01/16 02:14:30;;;;;;;;;;;;;;;;;;5040900;28;19928;-68
2023/01/16 02:19:41;;;;;;;;;;;;;;;;;;5014122;28;20028;-68
2023/01/16 02:22:07;;;;;;;;;;;;;;;;;;5015150;28;20012;-68
2023/01/16 02:24:32;;;;;;;;;;;;;;;;;;5027042;28;19925;-68
2023/01/16 02:26:58;;;;;;;;;;;;;;;;;;5021980;28;19968;-68
2023/01/16 02:29:24;;;;;;;;;;;;;;;;;;5033420;28;20313;-68
2023/01/16 02:31:50;;;;;;;;;;;;;;;;;;5033691;28;19983;-68
2023/01/16 02:34:16;;;;;;;;;;;;;;;;;;5033403;28;19921;-68
2023/01/16 02:36:42;;;;;;;;;;;;;;;;;;5031870;28;19921;-68
2023/01/16 02:39:08;;;;;;;;;;;;;;;;;;5032184;28;19956;-68
2023/01/16 02:41:41;;;;;;;;;;;;;;;;;;5013152;28;19926;-68
2023/01/16 02:44:07;;;;;;;;;;;;;;;;;;5015996;28;19956;-68
2023/01/16 02:46:33;;;;;;;;;;;;;;;;;;5028820;28;19961;-68
2023/01/16 02:48:59;;;;;;;;;;;;;;;;;;5013648;28;20561;-68
2023/01/16 02:51:25;;;;;;;;;;;;;;;;;;5011959;28;20371;-68
2023/01/16 02:53:51;;;;;;;;;;;;;;;;;;5013683;28;19972;-68
2023/01/16 02:56:17;;;;;;;;;;;;;;;;;;5014426;28;20321;-68
2023/01/16 02:58:42;;;;;;;;;;;;;;;;;;5017736;28;19921;-68
2023/01/16 03:01:09;;;;;;;;;;;;;;;;;;5033128;28;20050;-68
2023/01/16 03:03:35;;;;;;;;;;;;;;;;;;5031506;28;19939;-68
2023/01/16 03:06:01;;;;;;;;;;;;;;;;;;5033049;28;19921;-68
2023/01/16 03:08:27;;;;;;;;;;;;;;;;;;5015569;28;20303;-68
2023/01/16 03:10:55;;;;;;;;;;;;;;;;;;5013133;28;19929;-68
2023/01/16 03:13:21;;;;;;;;;;;;;;;;;;5014026;28;19921;-68
2023/01/16 03:15:47;;;;;;;;;;;;;;;;;;5020748;28;20394;-68
2023/01/16 03:18:13;;;;;;;;;;;;;;;;;;5032700;28;19921;-68
2023/01/16 03:20:39;;;;;;;;;;;;;;;;;;5031381;28;20267;-68
2023/01/16 03:23:04;;;;;;;;;;;;;;;;;;5031094;28;19964;-68
2023/01/16 03:25:30;;;;;;;;;;;;;;;;;;5030317;28;19925;-68
2023/01/16 03:27:56;;;;;;;;;;;;;;;;;;5029019;28;19939;-68
2023/01/16 03:30:22;;;;;;;;;;;;;;;;;;5030056;28;19971;-68
2023/01/16 03:32:48;;;;;;;;;;;;;;;;;;5020452;28;20051;-68
2023/01/16 03:35:14;;;;;;;;;;;;;;;;;;5028221;28;19979;-68
2023/01/16 03:37:43;;;;;;;;;;;;;;;;;;5012263;28;19926;-68
2023/01/16 03:40:09;;;;;;;;;;;;;;;;;;5015718;28;19929;-68
2023/01/16 03:42:35;;;;;;;;;;;;;;;;;;5015956;28;20355;-68
2023/01/16 03:45:00;;;;;;;;;;;;;;;;;;5016395;28;19980;-68
2023/01/16 03:47:26;;;;;;;;;;;;;;;;;;5021237;28;19921;-68
2023/01/16 03:49:52;;;;;;;;;;;;;;;;;;5014820;28;19921;-68
2023/01/16 03:52:18;;;;;;;;;;;;;;;;;;5021090;28;19921;-68
2023/01/16 03:54:44;;;;;;;;;;;;;;;;;;5023781;28;20874;-68
2023/01/16 03:57:10;;;;;;;;;;;;;;;;;;5017072;28;20054;-68
2023/01/16 03:59:36;;;;;;;;;;;;;;;;;;5025712;28;19965;-68
2023/01/16 04:02:02;;;;;;;;;;;;;;;;;;5011717;28;19929;-68
2023/01/16 04:04:28;;;;;;;;;;;;;;;;;;5014057;28;19936;-68
2023/01/16 04:06:54;;;;;;;;;;;;;;;;;;5015183;28;20330;-68
2023/01/16 04:09:20;;;;;;;;;;;;;;;;;;5020544;28;20007;-68
2023/01/16 04:11:45;;;;;;;;;;;;;;;;;;5016339;28;19932;-68
2023/01/16 04:14:11;;;;;;;;;;;;;;;;;;5012723;28;19925;-68
2023/01/16 04:16:39;;;;;;;;;;;;;;;;;;5013827;28;19932;-68
2023/01/16 04:19:05;;;;;;;;;;;;;;;;;;5031167;28;19936;-68
2023/01/16 04:21:31;;;;;;;;;;;;;;;;;;5015924;28;20540;-68
2023/01/16 04:23:57;;;;;;;;;;;;;;;;;;5015621;28;19961;-68
2023/01/16 04:26:22;;;;;;;;;;;;;;;;;;5018395;28;20008;-69
2023/01/16 04:28:53;;;;;;;;;;;;;;;;;;5020907;28;19932;-69
2023/01/16 04:31:18;;;;;;;;;;;;;;;;;;5019096;28;20371;-69
2023/01/16 04:33:44;;;;;;;;;;;;;;;;;;5016364;28;20016;-69
2023/01/16 04:36:10;;;;;;;;;;;;;;;;;;5023061;28;19948;-69
2023/01/16 04:38:36;;;;;;;;;;;;;;;;;;5011217;28;19921;-69
2023/01/16 04:41:02;;;;;;;;;;;;;;;;;;5021993;28;19925;-69
2023/01/16 04:43:28;;;;;;;;;;;;;;;;;;5014136;28;20555;-69
2023/01/16 04:45:54;;;;;;;;;;;;;;;;;;5027470;28;19929;-69
2023/01/16 04:48:20;;;;;;;;;;;;;;;;;;5029293;28;19929;-69
2023/01/16 04:50:45;;;;;;;;;;;;;;;;;;5021553;28;20570;-69
2023/01/16 04:53:11;;;;;;;;;;;;;;;;;;5029672;28;19928;-69
2023/01/16 04:55:37;;;;;;;;;;;;;;;;;;5031024;28;19931;-69
2023/01/16 04:58:03;;;;;;;;;;;;;;;;;;5029598;28;20367;-69
2023/01/16 05:00:29;;;;;;;;;;;;;;;;;;5030199;28;19936;-69
2023/01/16 05:02:55;;;;;;;;;;;;;;;;;;5029596;28;20211;-69
2023/01/16 05:05:21;;;;;;;;;;;;;;;;;;5017746;28;19971;-69
2023/01/16 05:08:15;;;;;;;;;;;;;;;;;;5032275;28;19925;-69
2023/01/16 05:10:33;;;;;;;;;;;;;;;;;;5034112;28;19928;-69
2023/01/16 05:12:58;;;;;;;;;;;;;;;;;;5035172;28;20683;-69
2023/01/16 05:15:24;;;;;;;;;;;;;;;;;;5034516;28;20008;-69
2023/01/16 05:17:50;;;;;;;;;;;;;;;;;;5015437;28;19921;-69
2023/01/16 05:20:16;;;;;;;;;;;;;;;;;;5017167;28;21628;-69
2023/01/16 05:22:42;;;;;;;;;;;;;;;;;;5034142;28;20047;-69
2023/01/16 05:25:08;;;;;;;;;;;;;;;;;;5033023;28;20271;-69
2023/01/16 05:27:34;;;;;;;;;;;;;;;;;;5030314;28;19971;-69
2023/01/16 05:30:00;;;;;;;;;;;;;;;;;;5026877;28;19932;-69
2023/01/16 05:32:25;;;;;;;;;;;;;;;;;;5020360;28;19929;-69
2023/01/16 05:34:51;;;;;;;;;;;;;;;;;;5034718;28;19921;-69
2023/01/16 05:37:17;;;;;;;;;;;;;;;;;;5017033;28;20339;-69
2023/01/16 05:39:43;;;;;;;;;;;;;;;;;;5032003;28;19928;-69
2023/01/16 05:42:20;;;;;;;;;;;;;;;;;;5034651;28;19925;-69
2023/01/16 05:44:46;;;;;;;;;;;;;;;;;;5033251;28;19939;-69
2023/01/16 05:47:12;;;;;;;;;;;;;;;;;;5026534;28;19922;-69
2023/01/16 05:49:38;;;;;;;;;;;;;;;;;;5023158;28;19921;-69
2023/01/16 05:52:04;;;;;;;;;;;;;;;;;;5033157;28;20409;-69
2023/01/16 05:54:30;;;;;;;;;;;;;;;;;;5027398;28;19930;-69
2023/01/16 05:56:56;;;;;;;;;;;;;;;;;;5013928;28;20379;-69
2023/01/16 05:59:22;;;;;;;;;;;;;;;;;;5014774;28;19965;-69
2023/01/16 06:01:47;;;;;;;;;;;;;;;;;;5026618;28;19935;-69
2023/01/16 06:04:13;;;;;;;;;;;;;;;;;;5033470;28;19925;-69
2023/01/16 06:06:39;;;;;;;;;;;;;;;;;;5033125;28;19921;-69
2023/01/16 06:09:05;;;;;;;;;;;;;;;;;;5034131;28;20361;-67
2023/01/16 06:11:31;;;;;;;;;;;;;;;;;;5021517;28;20063;-69
2023/01/16 06:13:59;;;;;;;;;;;;;;;;;;5023939;28;19925;-68
2023/01/16 06:16:25;;;;;;;;;;;;;;;;;;5036638;28;20326;-67
2023/01/16 06:18:51;;;;;;;;;;;;;;;;;;5016475;28;19932;-67
2023/01/16 06:21:16;;;;;;;;;;;;;;;;;;5037625;28;19921;-68
2023/01/16 06:23:42;;;;;;;;;;;;;;;;;;5032895;28;20409;-68
2023/01/16 06:26:09;;;;;;;;;;;;;;;;;;5020305;28;19926;-68
2023/01/16 06:28:35;;;;;;;;;;;;;;;;;;5014901;28;19921;-68
2023/01/16 06:31:01;;;;;;;;;;;;;;;;;;5023624;28;20360;-68
2023/01/16 06:33:27;;;;;;;;;;;;;;;;;;5031672;28;19925;-68
2023/01/16 06:35:53;;;;;;;;;;;;;;;;;;5032267;28;19932;-68
2023/01/16 06:38:18;;;;;;;;;;;;;;;;;;5032961;28;20274;-68
2023/01/16 06:40:44;;;;;;;;;;;;;;;;;;5033322;28;20267;-68
2023/01/16 06:43:10;;;;;;;;;;;;;;;;;;5032151;28;19925;-68
2023/01/16 06:45:36;;;;;;;;;;;;;;;;;;5034035;28;19932;-68
2023/01/16 06:48:02;;;;;;;;;;;;;;;;;;5030315;28;19922;-68
2023/01/16 06:50:28;;;;;;;;;;;;;;;;;;5025834;28;20551;-68
2023/01/16 06:52:54;;;;;;;;;;;;;;;;;;5018607;28;19925;-68
2023/01/16 06:55:20;;;;;;;;;;;;;;;;;;5020505;28;20316;-68
2023/01/16 06:57:46;;;;;;;;;;;;;;;;;;5015794;28;19930;-68
2023/01/16 07:00:12;;;;;;;;;;;;;;;;;;5031416;28;19979;-68
2023/01/16 07:02:39;;;;;;;;;;;;;;;;;;5033049;28;19976;-68
2023/01/16 07:05:05;;;;;;;;;;;;;;;;;;5025687;28;19929;-68
2023/01/16 07:07:31;;;;;;;;;;;;;;;;;;5031157;28;20383;-68
2023/01/16 07:09:57;;;;;;;;;;;;;;;;;;5031337;28;19925;-68
2023/01/16 07:12:23;;;;;;;;;;;;;;;;;;5028966;28;20355;-68
2023/01/16 07:23:03;;;;;;;;;;;;;;;;;;5028005;28;19925;-76
2023/01/16 07:25:29;;;;;;;;;;;;;;;;;;5028645;28;19978;-76
2023/01/16 07:27:55;;;;;;;;;;;;;;;;;;5022252;28;19947;-76
2023/01/16 07:30:21;;;;;;;;;;;;;;;;;;5028578;28;19925;-76
2023/01/16 07:32:46;;;;;;;;;;;;;;;;;;5019489;28;19933;-75
2023/01/16 07:35:12;;;;;;;;;;;;;;;;;;5029245;28;20286;-76
2023/01/16 07:37:39;;;;;;;;;;;;;;;;;;5032194;28;19932;-75
2023/01/16 07:40:05;;;;;;;;;;;;;;;;;;5032492;28;20030;-76
2023/01/16 07:42:30;;;;;;;;;;;;;;;;;;5040704;28;19959;-76
2023/01/16 07:44:56;;;;;;;;;;;;;;;;;;5039437;28;19990;-75
2023/01/16 07:47:22;;;;;;;;;;;;;;;;;;5029014;28;19921;-76
2023/01/16 07:49:48;;;;;;;;;;;;;;;;;;5030221;28;20024;-76
2023/01/16 07:52:14;;;;;;;;;;;;;;;;;;5030200;28;19921;-75
2023/01/16 07:54:41;;;;;;;;;;;;;;;;;;5030368;28;19928;-75
2023/01/16 07:57:07;;;;;;;;;;;;;;;;;;5031653;28;19931;-76
2023/01/16 07:59:32;;;;;;;;;;;;;;;;;;5028674;28;19933;-75
2023/01/16 08:01:58;;;;;;;;;;;;;;;;;;5024498;28;19971;-76
2023/01/16 08:04:24;;;;;;;;;;;;;;;;;;5026548;28;20297;-76
2023/01/16 08:06:50;;;;;;;;;;;;;;;;;;5029160;28;19964;-77
2023/01/16 08:09:16;;;;;;;;;;;;;;;;;;5014950;28;19961;-76
2023/01/16 08:11:46;;;;;;;;;;;;;;;;;;5029012;28;20019;-76
2023/01/16 08:14:12;;;;;;;;;;;;;;;;;;5021658;28;19932;-75
2023/01/16 08:16:38;;;;;;;;;;;;;;;;;;4998165;28;20279;-75
2023/01/16 08:19:04;;;;;;;;;;;;;;;;;;5021224;28;20004;-76
2023/01/16 08:21:30;;;;;;;;;;;;;;;;;;5026147;28;20000;-76
2023/01/16 08:23:55;;;;;;;;;;;;;;;;;;5025351;28;19924;-76
2023/01/16 08:26:21;;;;;;;;;;;;;;;;;;5027312;28;20394;-77
2023/01/16 08:28:48;;;;;;;;;;;;;;;;;;5017955;28;19928;-76
2023/01/16 08:31:15;;;;;;;;;;;;;;;;;;5024130;28;19948;-76
2023/01/16 08:33:41;;;;;;;;;;;;;;;;;;5028119;28;20414;-76
2023/01/16 08:36:07;;;;;;;;;;;;;;;;;;5030775;28;19973;-76
2023/01/16 08:38:33;;;;;;;;;;;;;;;;;;5029613;28;20610;-76
2023/01/16 08:40:59;;;;;;;;;;;;;;;;;;5026352;28;19929;-76
2023/01/16 08:51:39;;;;;;;;;;;;;;;;;;5017325;28;19933;-76
2023/01/16 08:54:05;;;;;;;;;;;;;;;;;;5017013;28;19921;-77
2023/01/16 08:56:31;;;;;;;;;;;;;;;;;;5033771;28;19928;-77
2023/01/16 08:58:57;;;;;;;;;;;;;;;;;;5016590;28;19955;-76
2023/01/16 09:01:22;;;;;;;;;;;;;;;;;;5016530;28;19925;-76
2023/01/16 09:03:48;;;;;;;;;;;;;;;;;;5023252;28;19925;-76
2023/01/16 09:06:14;;;;;;;;;;;;;;;;;;5031234;28;20020;-77
2023/01/16 09:08:40;;;;;;;;;;;;;;;;;;5022836;28;19928;-77
2023/01/16 09:13:51;;;;;;;;;;;;;;;;;;5022319;28;20374;-76
2023/01/16 09:16:17;;;;;;;;;;;;;;;;;;5032688;28;19921;-77
2023/01/16 09:18:43;;;;;;;;;;;;;;;;;;5023235;28;19976;-77
2023/01/16 09:21:09;;;;;;;;;;;;;;;;;;5009748;28;19929;-77
2023/01/16 09:23:34;;;;;;;;;;;;;;;;;;5018907;28;19992;-76
2023/01/16 09:26:00;;;;;;;;;;;;;;;;;;5027191;28;19921;-77
2023/01/16 09:28:26;;;;;;;;;;;;;;;;;;5020401;28;19925;-77
2023/01/16 09:30:52;;;;;;;;;;;;;;;;;;5023235;28;19959;-77
2023/01/16 09:33:18;;;;;;;;;;;;;;;;;;5023181;28;19966;-77
2023/01/16 09:35:44;;;;;;;;;;;;;;;;;;5024894;28;20004;-76
2023/01/16 09:38:10;;;;;;;;;;;;;;;;;;5019893;28;20401;-77
2023/01/16 09:40:36;;;;;;;;;;;;;;;;;;5019869;28;20298;-77
2023/01/16 09:45:46;;;;;;;;;;;;;;;;;;5025275;28;19925;-77
2023/01/16 09:48:12;;;;;;;;;;;;;;;;;;5027538;28;19921;-77
2023/01/16 09:50:38;;;;;;;;;;;;;;;;;;5027322;28;19960;-76
2023/01/16 09:58:36;;;;;;;;;;;;;;;;;;5018064;28;20598;-77
2023/01/16 10:01:02;;;;;;;;;;;;;;;;;;5026551;28;19925;-76
2023/01/16 10:03:28;;;;;;;;;;;;;;;;;;5026332;28;19952;-76
2023/01/16 10:05:54;;;;;;;;;;;;;;;;;;5025040;28;19956;-76
2023/01/16 10:08:20;;;;;;;;;;;;;;;;;;5025673;28;19921;-76
2023/01/16 10:10:46;;;;;;;;;;;;;;;;;;5027939;28;19921;-75
2023/01/16 10:13:12;;;;;;;;;;;;;;;;;;5026822;28;19932;-76
2023/01/16 10:15:38;;;;;;;;;;;;;;;;;;5030459;28;19921;-76
2023/01/16 10:18:04;;;;;;;;;;;;;;;;;;5025029;28;19933;-76
2023/01/16 10:20:30;;;;;;;;;;;;;;;;;;5022843;28;19925;-76
2023/01/16 10:22:55;;;;;;;;;;;;;;;;;;5006247;28;19932;-77
2023/01/16 10:25:21;;;;;;;;;;;;;;;;;;5021919;28;20367;-77
2023/01/16 10:27:48;;;;;;;;;;;;;;;;;;5024306;28;20351;-78
2023/01/16 10:30:14;;;;;;;;;;;;;;;;;;5020139;28;20355;-77
2023/01/16 10:32:40;;;;;;;;;;;;;;;;;;5017136;28;20000;-76
2023/01/16 10:35:06;;;;;;;;;;;;;;;;;;5022412;28;19928;-76
2023/01/16 10:37:32;;;;;;;;;;;;;;;;;;5020468;28;20614;-76
2023/01/16 10:39:58;;;;;;;;;;;;;;;;;;5021669;28;19929;-76
2023/01/16 10:50:38;;;;;;;;;;;;;;;;;;5026185;28;19960;-77
2023/01/16 10:53:04;;;;;;;;;;;;;;;;;;5026530;28;19957;-77
2023/01/16 10:55:30;;;;;;;;;;;;;;;;;;5025955;28;19943;-76
2023/01/16 10:57:55;;;;;;;;;;;;;;;;;;5029459;28;19928;-76
2023/01/16 11:00:27;;;;;;;;;;;;;;;;;;5002524;28;19925;-76
2023/01/16 11:02:53;;;;;;;;;;;;;;;;;;5030278;28;19932;-76
2023/01/16 11:05:21;;;;;;;;;;;;;;;;;;5030372;28;21281;-76
2023/01/16 11:07:47;;;;;;;;;;;;;;;;;;5025185;28;20294;-74
2023/01/16 11:10:13;;;;;;;;;;;;;;;;;;5024183;28;19925;-77
2023/01/16 11:20:53;;;;;;;;;;;;;;;;;;5023715;28;20011;-75
2023/01/16 11:23:19;;;;;;;;;;;;;;;;;;5004823;28;20301;-75
2023/01/16 11:25:45;;;;;;;;;;;;;;;;;;5016744;28;19921;-76
2023/01/16 11:28:11;;;;;;;;;;;;;;;;;;5028166;28;20012;-76
2023/01/16 11:30:37;;;;;;;;;;;;;;;;;;5008389;28;20028;-77
2023/01/16 11:33:07;;;;;;;;;;;;;;;;;;5011002;28;19975;-77
2023/01/16 11:35:33;;;;;;;;;;;;;;;;;;5011347;28;20383;-75
2023/01/16 11:37:59;;;;;;;;;;;;;;;;;;5021322;28;20011;-75
2023/01/16 11:40:25;;;;;;;;;;;;;;;;;;5021518;28;20020;-76
2023/01/16 11:48:23;;;;;;;;;;;;;;;;;;5029802;28;19925;-77
2023/01/16 11:50:49;;;;;;;;;;;;;;;;;;5026010;28;20015;-75
2023/01/16 11:53:15;;;;;;;;;;;;;;;;;;5022076;28;20091;-75
2023/01/16 11:55:41;;;;;;;;;;;;;;;;;;5008597;28;19936;-75
2023/01/16 11:58:07;;;;;;;;;;;;;;;;;;5020282;28;19939;-75
2023/01/16 12:00:33;;;;;;;;;;;;;;;;;;5022003;28;19956;-75
2023/01/16 12:02:59;;;;;;;;;;;;;;;;;;5031378;28;20015;-76
2023/01/16 12:08:09;;;;;;;;;;;;;;;;;;5025878;28;20602;-76
2023/01/16 12:10:35;;;;;;;;;;;;;;;;;;5027003;28;19932;-76
2023/01/16 12:15:46;;;;;;;;;;;;;;;;;;5022755;28;19925;-75
2023/01/16 12:18:12;;;;;;;;;;;;;;;;;;5024645;28;19930;-75
2023/01/16 12:20:38;;;;;;;;;;;;;;;;;;5022797;28;20007;-75
2023/01/16 12:23:04;;;;;;;;;;;;;;;;;;5004677;28;19931;-75
2023/01/16 12:25:29;;;;;;;;;;;;;;;;;;5022910;28;19925;-75
2023/01/16 12:27:58;;;;;;;;;;;;;;;;;;5025117;28;20068;-75
2023/01/16 12:30:24;;;;;;;;;;;;;;;;;;5026184;28;19921;-75
2023/01/16 12:32:50;;;;;;;;;;;;;;;;;;5023279;28;19984;-76
2023/01/16 12:35:16;;;;;;;;;;;;;;;;;;5019125;28;20020;-75
2023/01/16 12:37:42;;;;;;;;;;;;;;;;;;5039756;28;19928;-75
2023/01/16 12:40:08;;;;;;;;;;;;;;;;;;5021260;28;19926;-75
2023/01/16 12:45:19;;;;;;;;;;;;;;;;;;5024406;28;20425;-75
2023/01/16 12:47:45;;;;;;;;;;;;;;;;;;5011651;28;19922;-74
2023/01/16 12:50:14;;;;;;;;;;;;;;;;;;5030825;28;19921;-75
2023/01/16 12:52:40;;;;;;;;;;;;;;;;;;5029904;28;19925;-74
2023/01/16 12:55:05;;;;;;;;;;;;;;;;;;5031410;28;19921;-74
2023/01/16 12:57:31;;;;;;;;;;;;;;;;;;5030373;28;19921;-75
2023/01/16 12:59:57;;;;;;;;;;;;;;;;;;5027789;28;20452;-75
2023/01/16 13:02:23;;;;;;;;;;;;;;;;;;5018160;28;19961;-75
2023/01/16 13:04:49;;;;;;;;;;;;;;;;;;5023825;28;19938;-75
2023/01/16 13:07:16;;;;;;;;;;;;;;;;;;5019246;28;19928;-75
2023/01/16 13:09:42;;;;;;;;;;;;;;;;;;5012600;28;19937;-74
2023/01/16 13:14:53;;;;;;;;;;;;;;;;;;5029710;28;19921;-75
2023/01/16 13:17:19;;;;;;;;;;;;;;;;;;5025521;28;19956;-74
2023/01/16 13:19:44;;;;;;;;;;;;;;;;;;5030754;28;19929;-74
2023/01/16 13:22:10;;;;;;;;;;;;;;;;;;5033908;28;20039;-74
2023/01/16 13:24:38;;;;;;;;;;;;;;;;;;5021426;28;19921;-74
2023/01/16 13:27:04;;;;;;;;;;;;;;;;;;5032387;28;19979;-74
2023/01/16 13:29:30;;;;;;;;;;;;;;;;;;5032371;28;19967;-73
2023/01/16 13:31:57;;;;;;;;;;;;;;;;;;5032255;28;19925;-74
2023/01/16 13:34:23;;;;;;;;;;;;;;;;;;5031706;28;19921;-74
2023/01/16 13:36:48;;;;;;;;;;;;;;;;;;5030492;28;20371;-74
2023/01/16 13:39:14;;;;;;;;;;;;;;;;;;5031866;28;19925;-74
2023/01/16 13:41:40;;;;;;;;;;;;;;;;;;5007982;28;19925;-74
2023/01/16 13:46:51;;;;;;;;;;;;;;;;;;5032577;28;19925;-75
2023/01/16 13:49:17;;;;;;;;;;;;;;;;;;5016180;28;19948;-74
2023/01/16 13:51:43;;;;;;;;;;;;;;;;;;5032432;28;19925;-74
2023/01/16 13:54:09;;;;;;;;;;;;;;;;;;5015295;28;19983;-74
2023/01/16 13:56:34;;;;;;;;;;;;;;;;;;5030625;28;19968;-74
2023/01/16 13:59:02;;;;;;;;;;;;;;;;;;5032985;28;19921;-74
2023/01/16 14:01:28;;;;;;;;;;;;;;;;;;5032681;28;19935;-73
2023/01/16 14:03:54;;;;;;;;;;;;;;;;;;5014575;28;19921;-74
2023/01/16 14:06:20;;;;;;;;;;;;;;;;;;5031725;28;19925;-72
2023/01/16 14:09:04;;;;;;;;;;;;;;;;;;5031872;28;19922;-72
2023/01/16 14:11:30;;;;;;;;;;;;;;;;;;5026891;28;19987;-72
2023/01/16 14:13:56;;;;;;;;;;;;;;;;;;5030278;28;19924;-72
2023/01/16 14:16:31;;;;;;;;;;;;;;;;;;5012109;28;19928;-72
2023/01/16 14:18:59;;;;;;;;;;;;;;;;;;5032337;28;19929;-72
2023/01/16 14:21:25;;;;;;;;;;;;;;;;;;5033010;28;19935;-72
2023/01/16 14:24:00;;;;;;;;;;;;;;;;;;5032258;28;19921;-72
2023/01/16 14:26:26;;;;;;;;;;;;;;;;;;5005098;28;20573;-72
2023/01/16 14:28:54;;;;;;;;;;;;;;;;;;5035042;28;19933;-72
2023/01/16 14:31:20;;;;;;;;;;;;;;;;;;5033373;28;19925;-72
2023/01/16 14:33:45;;;;;;;;;;;;;;;;;;5033816;28;20320;-72
2023/01/16 14:36:11;;;;;;;;;;;;;;;;;;5032025;28;19925;-72
2023/01/16 14:38:37;;;;;;;;;;;;;;;;;;5030208;28;20047;-72
2023/01/16 14:57:36;;;;;;;;;;;;;;;;;;5030074;28;19925;-71
2023/01/16 15:00:02;;;;;;;;;;;;;;;;;;5031837;28;19936;-71
2023/01/16 15:02:31;;;;;;;;;;;;;;;;;;5031687;28;20393;-70
2023/01/16 15:04:58;;;;;;;;;;;;;;;;;;5024522;28;19932;-71
2023/01/16 15:07:24;;;;;;;;;;;;;;;;;;5032403;28;20286;-71
2023/01/16 15:09:50;;;;;;;;;;;;;;;;;;5030230;28;19929;-72
2023/01/16 15:12:19;;;;;;;;;;;;;;;;;;5005360;28;19933;-72
2023/01/16 15:14:45;;;;;;;;;;;;;;;;;;5017277;28;19932;-71
2023/01/16 15:22:40;;;;;;;;;;;;;;;;;;5030840;28;19921;-72
2023/01/16 15:25:06;;;;;;;;;;;;;;;;;;5025365;28;20374;-71
2023/01/16 15:27:32;;;;;;;;;;;;;;;;;;5032065;28;19929;-71
2023/01/16 15:29:59;;;;;;;;;;;;;;;;;;5030729;28;19979;-71
2023/01/16 15:32:25;;;;;;;;;;;;;;;;;;5032218;28;19925;-71
2023/01/16 15:34:51;;;;;;;;;;;;;;;;;;5032018;28;20362;-71
2023/01/16 15:37:17;;;;;;;;;;;;;;;;;;5028595;28;19925;-71
2023/01/16 15:39:45;;;;;;;;;;;;;;;;;;5027526;28;20014;-72
2023/01/16 15:47:40;;;;;;;;;;;;;;;;;;5031411;28;20004;-72
2023/01/16 15:50:07;;;;;;;;;;;;;;;;;;5029580;28;20423;-72
2023/01/16 15:52:38;;;;;;;;;;;;;;;;;;5031985;28;19976;-72
2023/01/16 15:55:04;;;;;;;;;;;;;;;;;;5028475;28;19921;-72
2023/01/16 15:57:30;;;;;;;;;;;;;;;;;;5031967;28;19928;-72
2023/01/16 15:59:56;;;;;;;;;;;;;;;;;;5028839;28;20263;-72
2023/01/16 16:02:27;;;;;;;;;;;;;;;;;;5031240;28;19925;-72
2023/01/16 16:04:53;;;;;;;;;;;;;;;;;;5029330;28;19925;-72
2023/01/16 16:07:19;;;;;;;;;;;;;;;;;;5029831;28;20389;-72
2023/01/16 16:09:46;;;;;;;;;;;;;;;;;;5025962;28;19921;-72
2023/01/16 16:12:12;;;;;;;;;;;;;;;;;;5031119;28;19932;-72
2023/01/16 16:20:07;;;;;;;;;;;;;;;;;;5029977;28;19932;-72
2023/01/16 16:22:48;;;;;;;;;;;;;;;;;;5029907;28;19971;-72
2023/01/16 16:25:14;;;;;;;;;;;;;;;;;;5029454;28;19921;-71
2023/01/16 16:27:40;;;;;;;;;;;;;;;;;;5028322;28;19974;-71
2023/01/16 16:30:06;;;;;;;;;;;;;;;;;;5029397;28;19925;-71
2023/01/16 16:32:32;;;;;;;;;;;;;;;;;;5031069;28;20017;-72
2023/01/16 16:34:58;;;;;;;;;;;;;;;;;;5024892;28;19921;-73
2023/01/16 16:37:24;;;;;;;;;;;;;;;;;;5026648;28;19925;-72
2023/01/16 16:39:50;;;;;;;;;;;;;;;;;;5027306;28;19932;-72
2023/01/16 16:42:29;;;;;;;;;;;;;;;;;;5030063;28;19920;-72
2023/01/16 16:44:55;;;;;;;;;;;;;;;;;;5010733;28;20299;-73
2023/01/16 16:47:21;;;;;;;;;;;;;;;;;;5026465;28;19921;-73
2023/01/16 16:49:47;;;;;;;;;;;;;;;;;;5029582;28;19921;-73
2023/01/16 16:52:13;;;;;;;;;;;;;;;;;;5028875;28;20354;-74
2023/01/16 16:54:40;;;;;;;;;;;;;;;;;;5028677;28;19929;-73
2023/01/16 16:57:06;;;;;;;;;;;;;;;;;;5028521;28;20287;-74
2023/01/16 16:59:37;;;;;;;;;;;;;;;;;;5022443;28;19930;-74
2023/01/16 17:02:03;;;;;;;;;;;;;;;;;;5006372;28;19926;-74
2023/01/16 17:04:29;;;;;;;;;;;;;;;;;;5033716;28;20096;-73
2023/01/16 17:06:56;;;;;;;;;;;;;;;;;;5033430;28;20039;-73
2023/01/16 17:09:22;;;;;;;;;;;;;;;;;;5030972;28;19936;-73
2023/01/16 17:11:48;;;;;;;;;;;;;;;;;;5028064;28;19925;-74
2023/01/16 17:14:14;;;;;;;;;;;;;;;;;;5024181;28;19932;-73
2023/01/16 17:16:41;;;;;;;;;;;;;;;;;;5050676;28;19925;-73
2023/01/16 17:19:07;;;;;;;;;;;;;;;;;;5016896;28;19932;-74
2023/01/16 17:21:33;;;;;;;;;;;;;;;;;;5035930;28;19932;-74
2023/01/16 17:23:59;;;;;;;;;;;;;;;;;;5036135;28;19925;-74
2023/01/16 17:26:25;;;;;;;;;;;;;;;;;;5027332;28;20463;-74
2023/01/16 17:28:53;;;;;;;;;;;;;;;;;;5035023;28;19921;-73
2023/01/16 17:31:19;;;;;;;;;;;;;;;;;;5031942;28;19932;-74
2023/01/16 17:33:44;;;;;;;;;;;;;;;;;;5031687;28;19925;-74
2023/01/16 17:36:10;;;;;;;;;;;;;;;;;;5032928;28;20386;-73
2023/01/16 17:38:36;;;;;;;;;;;;;;;;;;5028473;28;19968;-74
2023/01/16 17:41:02;;;;;;;;;;;;;;;;;;5026798;28;20015;-74
2023/01/16 17:46:13;;;;;;;;;;;;;;;;;;5027905;28;19956;-74
2023/01/16 17:48:39;;;;;;;;;;;;;;;;;;5019792;28;20015;-74
2023/01/16 17:51:05;;;;;;;;;;;;;;;;;;5045885;28;19925;-74
2023/01/16 17:53:31;;;;;;;;;;;;;;;;;;5032609;28;19925;-74
2023/01/16 17:55:57;;;;;;;;;;;;;;;;;;5035673;28;20313;-73
2023/01/16 17:58:31;;;;;;;;;;;;;;;;;;5029474;28;19929;-74
2023/01/16 18:00:57;;;;;;;;;;;;;;;;;;5031967;28;19929;-74
2023/01/16 18:03:23;;;;;;;;;;;;;;;;;;5015237;28;20378;-73
2023/01/16 18:05:49;;;;;;;;;;;;;;;;;;5028369;28;20294;-73
2023/01/16 18:08:15;;;;;;;;;;;;;;;;;;5021323;28;19963;-73
2023/01/16 18:10:41;;;;;;;;;;;;;;;;;;5039408;28;19971;-74
2023/01/16 18:18:36;;;;;;;;;;;;;;;;;;5026456;28;19929;-74
2023/01/16 18:23:47;;;;;;;;;;;;;;;;;;5030291;28;20560;-74
2023/01/16 18:26:13;;;;;;;;;;;;;;;;;;5027356;28;19925;-75
2023/01/16 18:28:39;;;;;;;;;;;;;;;;;;5023942;28;19925;-74